sensor_id;sensor_type;location;lat;lon;timestamp;temperature;humidity
2030;DHT22;1020;48.854;8.830;2022-09-20T00:00:33;8.00;99.90
2030;DHT22;1020;48.854;8.830;2022-09-20T00:03:00;7.90;99.90
2030;DHT22;1020;48.854;8.830;2022-09-20T00:05:26;7.90;99.90
2030;DHT22;1020;48.854;8.830;2022-09-20T00:07:53;7.80;99.90
2030;DHT22;1020;48.854;8.830;2022-09-20T00:10:20;7.80;99.90
2030;DHT22;1020;48.854;8.830;2022-09-20T00:12:48;7.80;99.90
2030;DHT22;1020;48.854;8.830;2022-09-20T00:15:15;7.80;99.90
2030;DHT22;1020;48.854;8.830;2022-09-20T00:17:42;7.80;99.90
2030;DHT22;1020;48.854;8.830;2022-09-20T00:20:09;7.80;99.90
2030;DHT22;1020;48.854;8.830;2022-09-20T00:22:36;7.70;99.90
2030;DHT22;1020;48.854;8.830;2022-09-20T00:25:03;7.70;99.90
2030;DHT22;1020;48.854;8.830;2022-09-20T00:27:30;7.60;99.90
2030;DHT22;1020;48.854;8.830;2022-09-20T00:29:58;7.60;99.90
2030;DHT22;1020;48.854;8.830;2022-09-20T00:32:25;7.60;99.90
2030;DHT22;1020;48.854;8.830;2022-09-20T00:34:51;7.70;99.90
2030;DHT22;1020;48.854;8.830;2022-09-20T00:37:35;7.70;99.90
2030;DHT22;1020;48.854;8.830;2022-09-20T00:40:04;7.60;99.90
2030;DHT22;1020;48.854;8.830;2022-09-20T00:42:32;7.60;99.90
2030;DHT22;1020;48.854;8.830;2022-09-20T00:45:01;7.60;99.90
2030;DHT22;1020;48.854;8.830;2022-09-20T00:47:36;7.70;99.90
2030;DHT22;1020;48.854;8.830;2022-09-20T00:50:26;7.70;99.90
2030;DHT22;1020;48.854;8.830;2022-09-20T00:52:58;7.70;99.90
2030;DHT22;1020;48.854;8.830;2022-09-20T00:55:28;7.80;99.90
2030;DHT22;1020;48.854;8.830;2022-09-20T00:57:55;7.80;99.90
2030;DHT22;1020;48.854;8.830;2022-09-20T01:00:25;6.10;99.90
2030;DHT22;1020;48.854;8.830;2022-09-20T01:02:57;7.80;99.90
2030;DHT22;1020;48.854;8.830;2022-09-20T01:05:26;7.80;99.90
2030;DHT22;1020;48.854;8.830;2022-09-20T01:07:53;7.90;99.90
2030;DHT22;1020;48.854;8.830;2022-09-20T01:10:21;7.90;99.90
2030;DHT22;1020;48.854;8.830;2022-09-20T01:12:49;7.90;99.90
2030;DHT22;1020;48.854;8.830;2022-09-20T01:15:17;7.80;99.90
2030;DHT22;1020;48.854;8.830;2022-09-20T01:17:48;7.80;99.90
2030;DHT22;1020;48.854;8.830;2022-09-20T01:20:19;7.80;99.90
2030;DHT22;1020;48.854;8.830;2022-09-20T01:26:13;7.80;99.90
2030;DHT22;1020;48.854;8.830;2022-09-20T01:28:47;7.70;99.90
2030;DHT22;1020;48.854;8.830;2022-09-20T01:31:17;7.80;99.90
2030;DHT22;1020;48.854;8.830;2022-09-20T01:33:48;7.70;99.90
2030;DHT22;1020;48.854;8.830;2022-09-20T01:36:20;7.70;99.90
2030;DHT22;1020;48.854;8.830;2022-09-20T01:38:57;7.60;99.90
2030;DHT22;1020;48.854;8.830;2022-09-20T01:41:32;7.70;99.90
2030;DHT22;1020;48.854;8.830;2022-09-20T01:44:06;7.70;99.90
2030;DHT22;1020;48.854;8.830;2022-09-20T01:46:35;7.60;99.90
2030;DHT22;1020;48.854;8.830;2022-09-20T01:49:12;7.50;99.90
2030;DHT22;1020;48.854;8.830;2022-09-20T01:58:23;7.60;99.90
2030;DHT22;1020;48.854;8.830;2022-09-20T02:09:57;7.60;99.90
2030;DHT22;1020;48.854;8.830;2022-09-20T02:12:39;7.60;99.90
2030;DHT22;1020;48.854;8.830;2022-09-20T02:15:17;7.60;99.90
2030;DHT22;1020;48.854;8.830;2022-09-20T02:17:55;7.70;99.90
2030;DHT22;1020;48.854;8.830;2022-09-20T02:20:36;7.70;99.90
2030;DHT22;1020;48.854;8.830;2022-09-20T02:23:13;7.80;99.90
2030;DHT22;1020;48.854;8.830;2022-09-20T02:25:56;7.90;99.90
2030;DHT22;1020;48.854;8.830;2022-09-20T02:28:36;7.90;99.90
2030;DHT22;1020;48.854;8.830;2022-09-20T02:31:14;7.90;99.90
2030;DHT22;1020;48.854;8.830;2022-09-20T02:34:00;8.00;99.90
2030;DHT22;1020;48.854;8.830;2022-09-20T02:36:36;8.00;99.90
2030;DHT22;1020;48.854;8.830;2022-09-20T02:39:10;8.00;99.90
2030;DHT22;1020;48.854;8.830;2022-09-20T02:41:56;8.10;99.90
2030;DHT22;1020;48.854;8.830;2022-09-20T02:44:39;8.20;99.90
2030;DHT22;1020;48.854;8.830;2022-09-20T02:47:16;8.30;99.90
2030;DHT22;1020;48.854;8.830;2022-09-20T02:49:56;8.30;99.90
2030;DHT22;1020;48.854;8.830;2022-09-20T02:52:30;8.40;99.90
2030;DHT22;1020;48.854;8.830;2022-09-20T02:55:04;8.40;99.90
2030;DHT22;1020;48.854;8.830;2022-09-20T02:57:35;8.40;99.90
2030;DHT22;1020;48.854;8.830;2022-09-20T03:00:08;8.40;99.90
2030;DHT22;1020;48.854;8.830;2022-09-20T03:02:46;8.50;99.90
2030;DHT22;1020;48.854;8.830;2022-09-20T03:05:22;8.40;99.90
2030;DHT22;1020;48.854;8.830;2022-09-20T03:08:03;8.50;99.90
2030;DHT22;1020;48.854;8.830;2022-09-20T03:10:36;8.60;99.90
2030;DHT22;1020;48.854;8.830;2022-09-20T03:13:13;8.70;99.90
2030;DHT22;1020;48.854;8.830;2022-09-20T03:15:51;8.70;99.90
2030;DHT22;1020;48.854;8.830;2022-09-20T03:18:29;8.70;99.90
2030;DHT22;1020;48.854;8.830;2022-09-20T03:21:08;8.70;99.90
2030;DHT22;1020;48.854;8.830;2022-09-20T03:23:47;8.80;99.90
2030;DHT22;1020;48.854;8.830;2022-09-20T03:26:25;8.90;99.90
2030;DHT22;1020;48.854;8.830;2022-09-20T03:28:58;8.90;99.90
2030;DHT22;1020;48.854;8.830;2022-09-20T03:31:37;9.00;99.90
2030;DHT22;1020;48.854;8.830;2022-09-20T03:34:15;9.00;99.90
2030;DHT22;1020;48.854;8.830;2022-09-20T03:37:02;9.00;99.90
2030;DHT22;1020;48.854;8.830;2022-09-20T03:42:40;9.00;99.90
2030;DHT22;1020;48.854;8.830;2022-09-20T03:48:26;9.00;99.90
2030;DHT22;1020;48.854;8.830;2022-09-20T03:51:06;9.00;99.90
2030;DHT22;1020;48.854;8.830;2022-09-20T03:53:58;9.00;99.90
2030;DHT22;1020;48.854;8.830;2022-09-20T03:56:54;9.00;99.90
2030;DHT22;1020;48.854;8.830;2022-09-20T03:59:42;9.00;99.90
2030;DHT22;1020;48.854;8.830;2022-09-20T04:02:30;9.10;99.90
2030;DHT22;1020;48.854;8.830;2022-09-20T04:05:00;9.20;99.90
2030;DHT22;1020;48.854;8.830;2022-09-20T04:07:34;9.30;99.90
2030;DHT22;1020;48.854;8.830;2022-09-20T04:10:19;9.20;99.90
2030;DHT22;1020;48.854;8.830;2022-09-20T04:13:14;9.20;99.90
2030;DHT22;1020;48.854;8.830;2022-09-20T04:15:50;9.30;99.90
2030;DHT22;1020;48.854;8.830;2022-09-20T04:18:23;9.30;99.90
2030;DHT22;1020;48.854;8.830;2022-09-20T04:20:56;9.40;99.90
2030;DHT22;1020;48.854;8.830;2022-09-20T04:23:34;9.50;99.90
2030;DHT22;1020;48.854;8.830;2022-09-20T04:26:05;9.60;99.90
2030;DHT22;1020;48.854;8.830;2022-09-20T04:28:36;9.60;99.90
2030;DHT22;1020;48.854;8.830;2022-09-20T04:33:53;9.70;99.90
2030;DHT22;1020;48.854;8.830;2022-09-20T04:39:41;9.80;99.90
2030;DHT22;1020;48.854;8.830;2022-09-20T04:42:47;9.80;99.90
2030;DHT22;1020;48.854;8.830;2022-09-20T04:45:44;9.80;99.90
2030;DHT22;1020;48.854;8.830;2022-09-20T04:48:43;9.70;99.90
2030;DHT22;1020;48.854;8.830;2022-09-20T04:51:41;9.70;99.90
2030;DHT22;1020;48.854;8.830;2022-09-20T04:54:37;9.60;99.90
2030;DHT22;1020;48.854;8.830;2022-09-20T04:57:31;9.50;99.90
2030;DHT22;1020;48.854;8.830;2022-09-20T05:00:05;9.40;99.90
2030;DHT22;1020;48.854;8.830;2022-09-20T05:03:01;9.40;99.90
2030;DHT22;1020;48.854;8.830;2022-09-20T05:06:00;9.20;99.90
2030;DHT22;1020;48.854;8.830;2022-09-20T05:08:49;9.10;99.90
2030;DHT22;1020;48.854;8.830;2022-09-20T05:11:49;8.90;99.90
2030;DHT22;1020;48.854;8.830;2022-09-20T05:14:36;8.80;99.90
2030;DHT22;1020;48.854;8.830;2022-09-20T05:17:14;8.80;99.90
2030;DHT22;1020;48.854;8.830;2022-09-20T05:22:52;8.70;99.90
2030;DHT22;1020;48.854;8.830;2022-09-20T05:25:38;8.70;99.90
2030;DHT22;1020;48.854;8.830;2022-09-20T05:28:11;8.70;99.90
2030;DHT22;1020;48.854;8.830;2022-09-20T05:30:45;8.60;99.90
2030;DHT22;1020;48.854;8.830;2022-09-20T05:33:20;8.60;99.90
2030;DHT22;1020;48.854;8.830;2022-09-20T05:35:58;8.70;99.90
2030;DHT22;1020;48.854;8.830;2022-09-20T05:38:33;8.60;99.90
2030;DHT22;1020;48.854;8.830;2022-09-20T05:41:09;8.60;99.90
2030;DHT22;1020;48.854;8.830;2022-09-20T05:43:46;8.50;99.90
2030;DHT22;1020;48.854;8.830;2022-09-20T05:46:25;8.50;99.90
2030;DHT22;1020;48.854;8.830;2022-09-20T05:49:06;8.60;99.90
2030;DHT22;1020;48.854;8.830;2022-09-20T05:51:48;8.60;99.90
2030;DHT22;1020;48.854;8.830;2022-09-20T05:54:26;8.60;99.90
2030;DHT22;1020;48.854;8.830;2022-09-20T05:57:04;8.70;99.90
2030;DHT22;1020;48.854;8.830;2022-09-20T05:59:45;8.70;99.90
2030;DHT22;1020;48.854;8.830;2022-09-20T06:02:23;8.70;99.90
2030;DHT22;1020;48.854;8.830;2022-09-20T06:07:34;8.80;99.90
2030;DHT22;1020;48.854;8.830;2022-09-20T06:10:22;8.90;99.90
2030;DHT22;1020;48.854;8.830;2022-09-20T06:13:02;9.00;99.90
2030;DHT22;1020;48.854;8.830;2022-09-20T06:15:44;9.10;99.90
2030;DHT22;1020;48.854;8.830;2022-09-20T06:18:20;9.10;99.90
2030;DHT22;1020;48.854;8.830;2022-09-20T06:20:57;9.20;99.90
2030;DHT22;1020;48.854;8.830;2022-09-20T06:23:28;9.30;99.90
2030;DHT22;1020;48.854;8.830;2022-09-20T06:25:58;9.40;99.90
2030;DHT22;1020;48.854;8.830;2022-09-20T06:28:30;9.40;99.90
2030;DHT22;1020;48.854;8.830;2022-09-20T06:30:58;9.50;99.90
2030;DHT22;1020;48.854;8.830;2022-09-20T06:33:27;9.60;99.90
2030;DHT22;1020;48.854;8.830;2022-09-20T06:35:58;9.70;99.90
2030;DHT22;1020;48.854;8.830;2022-09-20T06:38:53;9.80;99.90
2030;DHT22;1020;48.854;8.830;2022-09-20T06:41:43;9.90;99.90
2030;DHT22;1020;48.854;8.830;2022-09-20T06:44:10;10.10;99.90
2030;DHT22;1020;48.854;8.830;2022-09-20T06:46:37;10.50;99.90
2030;DHT22;1020;48.854;8.830;2022-09-20T06:49:06;11.10;92.60
2030;DHT22;1020;48.854;8.830;2022-09-20T06:51:35;11.60;1.00
2030;DHT22;1020;48.854;8.830;2022-09-20T06:54:05;12.00;1.00
2030;DHT22;1020;48.854;8.830;2022-09-20T06:56:34;12.30;1.00
2030;DHT22;1020;48.854;8.830;2022-09-20T06:59:03;12.70;1.00
2030;DHT22;1020;48.854;8.830;2022-09-20T07:01:31;13.70;99.90
2030;DHT22;1020;48.854;8.830;2022-09-20T07:03:58;13.90;99.90
2030;DHT22;1020;48.854;8.830;2022-09-20T07:06:25;13.60;99.90
2030;DHT22;1020;48.854;8.830;2022-09-20T07:08:53;13.60;1.00
2030;DHT22;1020;48.854;8.830;2022-09-20T07:11:21;13.40;1.00
2030;DHT22;1020;48.854;8.830;2022-09-20T07:13:49;13.30;1.00
2030;DHT22;1020;48.854;8.830;2022-09-20T07:16:16;13.00;1.00
2030;DHT22;1020;48.854;8.830;2022-09-20T07:18:43;13.00;1.00
2030;DHT22;1020;48.854;8.830;2022-09-20T07:21:11;13.10;1.00
2030;DHT22;1020;48.854;8.830;2022-09-20T07:23:38;12.70;1.00
2030;DHT22;1020;48.854;8.830;2022-09-20T07:26:05;12.70;1.00
2030;DHT22;1020;48.854;8.830;2022-09-20T07:28:34;12.70;1.00
2030;DHT22;1020;48.854;8.830;2022-09-20T07:31:01;12.50;1.00
2030;DHT22;1020;48.854;8.830;2022-09-20T07:33:27;12.60;1.00
2030;DHT22;1020;48.854;8.830;2022-09-20T07:35:55;12.40;1.00
2030;DHT22;1020;48.854;8.830;2022-09-20T07:38:22;12.50;1.00
2030;DHT22;1020;48.854;8.830;2022-09-20T07:40:54;12.60;1.00
2030;DHT22;1020;48.854;8.830;2022-09-20T07:43:22;13.10;1.00
2030;DHT22;1020;48.854;8.830;2022-09-20T07:45:50;13.70;99.90
2030;DHT22;1020;48.854;8.830;2022-09-20T07:48:19;14.00;1.00
2030;DHT22;1020;48.854;8.830;2022-09-20T07:50:49;15.00;1.00
2030;DHT22;1020;48.854;8.830;2022-09-20T07:53:16;16.10;1.00
2030;DHT22;1020;48.854;8.830;2022-09-20T07:55:43;17.60;22.30
2030;DHT22;1020;48.854;8.830;2022-09-20T07:58:09;18.00;1.70
2030;DHT22;1020;48.854;8.830;2022-09-20T08:00:36;18.20;99.90
2030;DHT22;1020;48.854;8.830;2022-09-20T08:03:05;18.90;2.40
2030;DHT22;1020;48.854;8.830;2022-09-20T08:05:31;20.10;1.00
2030;DHT22;1020;48.854;8.830;2022-09-20T08:08:00;20.30;1.00
2030;DHT22;1020;48.854;8.830;2022-09-20T08:10:27;20.80;1.00
2030;DHT22;1020;48.854;8.830;2022-09-20T08:12:54;21.70;1.00
2030;DHT22;1020;48.854;8.830;2022-09-20T08:15:21;19.20;1.00
2030;DHT22;1020;48.854;8.830;2022-09-20T08:17:47;18.20;1.00
2030;DHT22;1020;48.854;8.830;2022-09-20T08:20:15;17.10;1.00
2030;DHT22;1020;48.854;8.830;2022-09-20T08:22:42;16.50;99.90
2030;DHT22;1020;48.854;8.830;2022-09-20T08:25:09;16.40;99.90
2030;DHT22;1020;48.854;8.830;2022-09-20T08:27:36;16.90;99.90
2030;DHT22;1020;48.854;8.830;2022-09-20T08:30:04;17.70;99.90
2030;DHT22;1020;48.854;8.830;2022-09-20T08:32:31;18.50;1.00
2030;DHT22;1020;48.854;8.830;2022-09-20T08:34:58;19.00;1.00
2030;DHT22;1020;48.854;8.830;2022-09-20T08:37:26;20.00;1.00
2030;DHT22;1020;48.854;8.830;2022-09-20T08:39:53;21.00;1.00
2030;DHT22;1020;48.854;8.830;2022-09-20T08:42:23;22.10;1.00
2030;DHT22;1020;48.854;8.830;2022-09-20T08:44:55;22.70;99.90
2030;DHT22;1020;48.854;8.830;2022-09-20T08:47:26;22.90;99.90
2030;DHT22;1020;48.854;8.830;2022-09-20T08:49:53;22.00;99.90
2030;DHT22;1020;48.854;8.830;2022-09-20T08:52:28;22.20;99.90
2030;DHT22;1020;48.854;8.830;2022-09-20T08:54:56;22.70;99.90
2030;DHT22;1020;48.854;8.830;2022-09-20T08:57:25;23.00;99.90
2030;DHT22;1020;48.854;8.830;2022-09-20T08:59:53;23.80;99.90
2030;DHT22;1020;48.854;8.830;2022-09-20T09:02:20;24.20;99.90
2030;DHT22;1020;48.854;8.830;2022-09-20T09:04:48;24.10;99.90
2030;DHT22;1020;48.854;8.830;2022-09-20T09:07:19;24.30;99.90
2030;DHT22;1020;48.854;8.830;2022-09-20T09:09:51;23.60;99.90
2030;DHT22;1020;48.854;8.830;2022-09-20T09:12:21;23.60;99.90
2030;DHT22;1020;48.854;8.830;2022-09-20T09:14:50;23.50;99.90
2030;DHT22;1020;48.854;8.830;2022-09-20T09:17:21;22.70;99.90
2030;DHT22;1020;48.854;8.830;2022-09-20T09:19:49;23.50;99.90
2030;DHT22;1020;48.854;8.830;2022-09-20T09:22:23;23.60;99.90
2030;DHT22;1020;48.854;8.830;2022-09-20T09:25:21;23.80;99.90
2030;DHT22;1020;48.854;8.830;2022-09-20T09:27:50;24.20;99.90
2030;DHT22;1020;48.854;8.830;2022-09-20T09:30:23;24.40;99.90
2030;DHT22;1020;48.854;8.830;2022-09-20T09:32:51;22.20;99.90
2030;DHT22;1020;48.854;8.830;2022-09-20T09:35:25;23.50;99.90
2030;DHT22;1020;48.854;8.830;2022-09-20T09:37:54;23.30;99.90
2030;DHT22;1020;48.854;8.830;2022-09-20T09:40:23;23.70;99.90
2030;DHT22;1020;48.854;8.830;2022-09-20T09:42:52;24.40;99.90
2030;DHT22;1020;48.854;8.830;2022-09-20T09:45:25;23.90;99.90
2030;DHT22;1020;48.854;8.830;2022-09-20T09:47:54;24.20;99.90
2030;DHT22;1020;48.854;8.830;2022-09-20T09:50:23;24.20;99.90
2030;DHT22;1020;48.854;8.830;2022-09-20T09:53:04;23.30;99.90
2030;DHT22;1020;48.854;8.830;2022-09-20T09:58:42;22.40;99.90
2030;DHT22;1020;48.854;8.830;2022-09-20T10:01:22;23.30;99.90
2030;DHT22;1020;48.854;8.830;2022-09-20T10:03:57;24.30;99.90
2030;DHT22;1020;48.854;8.830;2022-09-20T10:06:32;25.40;99.90
2030;DHT22;1020;48.854;8.830;2022-09-20T10:09:14;25.50;99.90
2030;DHT22;1020;48.854;8.830;2022-09-20T10:11:57;25.10;99.90
2030;DHT22;1020;48.854;8.830;2022-09-20T10:14:36;23.80;99.90
2030;DHT22;1020;48.854;8.830;2022-09-20T10:17:18;22.90;99.90
2030;DHT22;1020;48.854;8.830;2022-09-20T10:19:57;21.80;99.90
2030;DHT22;1020;48.854;8.830;2022-09-20T10:22:29;20.80;99.90
2030;DHT22;1020;48.854;8.830;2022-09-20T10:25:02;20.30;99.90
2030;DHT22;1020;48.854;8.830;2022-09-20T10:27:42;20.50;99.90
2030;DHT22;1020;48.854;8.830;2022-09-20T10:30:19;20.70;99.90
2030;DHT22;1020;48.854;8.830;2022-09-20T10:33:00;20.90;99.90
2030;DHT22;1020;48.854;8.830;2022-09-20T10:35:34;20.50;99.90
2030;DHT22;1020;48.854;8.830;2022-09-20T10:38:14;20.10;99.90
2030;DHT22;1020;48.854;8.830;2022-09-20T10:40:57;20.20;99.90
2030;DHT22;1020;48.854;8.830;2022-09-20T10:43:55;20.90;99.90
2030;DHT22;1020;48.854;8.830;2022-09-20T10:46:34;20.80;99.90
2030;DHT22;1020;48.854;8.830;2022-09-20T10:49:17;20.70;99.90
2030;DHT22;1020;48.854;8.830;2022-09-20T10:51:56;20.20;99.90
2030;DHT22;1020;48.854;8.830;2022-09-20T10:54:38;20.00;99.90
2030;DHT22;1020;48.854;8.830;2022-09-20T10:57:22;19.90;99.90
2030;DHT22;1020;48.854;8.830;2022-09-20T10:59:57;18.90;99.90
2030;DHT22;1020;48.854;8.830;2022-09-20T11:02:44;18.40;99.90
2030;DHT22;1020;48.854;8.830;2022-09-20T11:05:25;18.10;99.90
2030;DHT22;1020;48.854;8.830;2022-09-20T11:08:05;17.60;99.90
2030;DHT22;1020;48.854;8.830;2022-09-20T11:10:35;17.60;99.90
2030;DHT22;1020;48.854;8.830;2022-09-20T11:13:06;17.80;99.90
2030;DHT22;1020;48.854;8.830;2022-09-20T11:15:40;17.60;1.00
2030;DHT22;1020;48.854;8.830;2022-09-20T11:18:13;17.70;1.00
2030;DHT22;1020;48.854;8.830;2022-09-20T11:20:47;17.70;1.00
2030;DHT22;1020;48.854;8.830;2022-09-20T11:23:18;17.30;99.90
2030;DHT22;1020;48.854;8.830;2022-09-20T11:25:49;17.00;1.00
2030;DHT22;1020;48.854;8.830;2022-09-20T11:28:21;17.30;1.00
2030;DHT22;1020;48.854;8.830;2022-09-20T11:30:55;17.60;1.00
2030;DHT22;1020;48.854;8.830;2022-09-20T11:33:27;17.60;99.90
2030;DHT22;1020;48.854;8.830;2022-09-20T11:35:58;17.50;99.90
2030;DHT22;1020;48.854;8.830;2022-09-20T11:38:30;17.40;1.00
2030;DHT22;1020;48.854;8.830;2022-09-20T11:41:03;17.30;1.00
2030;DHT22;1020;48.854;8.830;2022-09-20T11:43:30;16.80;1.00
2030;DHT22;1020;48.854;8.830;2022-09-20T11:46:03;17.20;1.00
2030;DHT22;1020;48.854;8.830;2022-09-20T11:48:35;18.40;99.90
2030;DHT22;1020;48.854;8.830;2022-09-20T11:51:30;19.50;99.90
2030;DHT22;1020;48.854;8.830;2022-09-20T11:54:11;20.40;99.90
2030;DHT22;1020;48.854;8.830;2022-09-20T11:56:40;20.30;99.90
2030;DHT22;1020;48.854;8.830;2022-09-20T11:59:27;20.40;99.90
2030;DHT22;1020;48.854;8.830;2022-09-20T12:01:55;20.10;99.90
2030;DHT22;1020;48.854;8.830;2022-09-20T12:04:26;19.90;99.90
2030;DHT22;1020;48.854;8.830;2022-09-20T12:07:00;20.10;99.90
2030;DHT22;1020;48.854;8.830;2022-09-20T12:09:30;20.60;99.90
2030;DHT22;1020;48.854;8.830;2022-09-20T12:11:58;20.80;99.90
2030;DHT22;1020;48.854;8.830;2022-09-20T12:14:28;20.90;99.90
2030;DHT22;1020;48.854;8.830;2022-09-20T12:16:57;20.10;99.90
2030;DHT22;1020;48.854;8.830;2022-09-20T12:19:37;19.20;99.90
2030;DHT22;1020;48.854;8.830;2022-09-20T12:22:26;18.80;99.90
2030;DHT22;1020;48.854;8.830;2022-09-20T12:25:34;19.30;99.90
2030;DHT22;1020;48.854;8.830;2022-09-20T12:28:02;19.60;99.90
2030;DHT22;1020;48.854;8.830;2022-09-20T12:30:29;19.90;99.90
2030;DHT22;1020;48.854;8.830;2022-09-20T12:32:58;20.30;99.90
2030;DHT22;1020;48.854;8.830;2022-09-20T12:39:04;20.80;99.90
2030;DHT22;1020;48.854;8.830;2022-09-20T12:41:46;20.70;99.90
2030;DHT22;1020;48.854;8.830;2022-09-20T12:44:25;20.20;99.90
2030;DHT22;1020;48.854;8.830;2022-09-20T12:46:56;19.20;99.90
2030;DHT22;1020;48.854;8.830;2022-09-20T12:49:48;19.10;99.90
2030;DHT22;1020;48.854;8.830;2022-09-20T12:52:54;18.70;99.90
2030;DHT22;1020;48.854;8.830;2022-09-20T12:55:38;18.20;99.90
2030;DHT22;1020;48.854;8.830;2022-09-20T12:58:26;18.20;99.90
2030;DHT22;1020;48.854;8.830;2022-09-20T13:04:38;18.00;99.90
2030;DHT22;1020;48.854;8.830;2022-09-20T13:10:23;17.10;99.90
2030;DHT22;1020;48.854;8.830;2022-09-20T13:12:57;17.30;99.90
2030;DHT22;1020;48.854;8.830;2022-09-20T13:15:24;17.30;99.90
2030;DHT22;1020;48.854;8.830;2022-09-20T13:17:54;17.60;99.90
2030;DHT22;1020;48.854;8.830;2022-09-20T13:20:23;17.70;99.90
2030;DHT22;1020;48.854;8.830;2022-09-20T13:22:52;17.50;99.90
2030;DHT22;1020;48.854;8.830;2022-09-20T13:25:20;17.20;1.00
2030;DHT22;1020;48.854;8.830;2022-09-20T13:27:51;16.80;1.00
2030;DHT22;1020;48.854;8.830;2022-09-20T13:30:23;16.40;1.00
2030;DHT22;1020;48.854;8.830;2022-09-20T13:32:51;16.00;1.00
2030;DHT22;1020;48.854;8.830;2022-09-20T13:35:20;15.40;1.00
2030;DHT22;1020;48.854;8.830;2022-09-20T13:37:51;15.10;1.00
2030;DHT22;1020;48.854;8.830;2022-09-20T13:40:21;14.60;38.10
2030;DHT22;1020;48.854;8.830;2022-09-20T13:42:49;14.40;99.90
2030;DHT22;1020;48.854;8.830;2022-09-20T13:45:18;14.40;99.30
2030;DHT22;1020;48.854;8.830;2022-09-20T13:47:50;14.30;99.90
2030;DHT22;1020;48.854;8.830;2022-09-20T13:50:21;14.20;99.90
2030;DHT22;1020;48.854;8.830;2022-09-20T13:52:51;14.00;1.00
2030;DHT22;1020;48.854;8.830;2022-09-20T13:55:27;13.90;1.00
2030;DHT22;1020;48.854;8.830;2022-09-20T13:57:56;14.10;1.00
2030;DHT22;1020;48.854;8.830;2022-09-20T14:00:24;14.30;99.90
2030;DHT22;1020;48.854;8.830;2022-09-20T14:02:52;14.50;99.90
2030;DHT22;1020;48.854;8.830;2022-09-20T14:05:24;14.70;99.90
2030;DHT22;1020;48.854;8.830;2022-09-20T14:07:51;15.00;13.10
2030;DHT22;1020;48.854;8.830;2022-09-20T14:10:33;15.40;1.00
2030;DHT22;1020;48.854;8.830;2022-09-20T14:13:03;15.50;1.00
2030;DHT22;1020;48.854;8.830;2022-09-20T14:15:34;15.80;1.00
2030;DHT22;1020;48.854;8.830;2022-09-20T14:18:05;16.10;1.00
2030;DHT22;1020;48.854;8.830;2022-09-20T14:20:33;16.40;1.00
2030;DHT22;1020;48.854;8.830;2022-09-20T14:23:00;16.60;1.00
2030;DHT22;1020;48.854;8.830;2022-09-20T14:25:27;16.90;1.00
2030;DHT22;1020;48.854;8.830;2022-09-20T14:28:16;17.10;1.00
2030;DHT22;1020;48.854;8.830;2022-09-20T14:30:45;17.50;99.90
2030;DHT22;1020;48.854;8.830;2022-09-20T14:33:16;17.50;99.90
2030;DHT22;1020;48.854;8.830;2022-09-20T14:35:48;17.80;99.90
2030;DHT22;1020;48.854;8.830;2022-09-20T14:38:17;18.10;99.90
2030;DHT22;1020;48.854;8.830;2022-09-20T14:40:48;18.70;99.90
2030;DHT22;1020;48.854;8.830;2022-09-20T14:43:23;18.70;99.90
2030;DHT22;1020;48.854;8.830;2022-09-20T14:45:52;18.50;99.90
2030;DHT22;1020;48.854;8.830;2022-09-20T14:48:35;18.30;99.90
2030;DHT22;1020;48.854;8.830;2022-09-20T14:51:11;18.40;99.90
2030;DHT22;1020;48.854;8.830;2022-09-20T14:53:48;18.50;99.90
2030;DHT22;1020;48.854;8.830;2022-09-20T14:56:16;18.90;99.90
2030;DHT22;1020;48.854;8.830;2022-09-20T14:59:05;18.40;99.90
2030;DHT22;1020;48.854;8.830;2022-09-20T15:01:33;18.80;99.90
2030;DHT22;1020;48.854;8.830;2022-09-20T15:04:07;18.70;99.90
2030;DHT22;1020;48.854;8.830;2022-09-20T15:06:35;18.70;99.90
2030;DHT22;1020;48.854;8.830;2022-09-20T15:09:04;18.90;99.90
2030;DHT22;1020;48.854;8.830;2022-09-20T15:11:31;19.10;99.90
2030;DHT22;1020;48.854;8.830;2022-09-20T15:13:58;18.60;99.90
2030;DHT22;1020;48.854;8.830;2022-09-20T15:16:25;18.10;99.90
2030;DHT22;1020;48.854;8.830;2022-09-20T15:18:52;18.00;99.90
2030;DHT22;1020;48.854;8.830;2022-09-20T15:21:21;17.80;99.90
2030;DHT22;1020;48.854;8.830;2022-09-20T15:23:48;17.60;99.90
2030;DHT22;1020;48.854;8.830;2022-09-20T15:26:15;17.70;99.90
2030;DHT22;1020;48.854;8.830;2022-09-20T15:28:42;17.80;99.90
2030;DHT22;1020;48.854;8.830;2022-09-20T15:31:09;17.90;99.90
2030;DHT22;1020;48.854;8.830;2022-09-20T15:33:37;18.20;99.90
2030;DHT22;1020;48.854;8.830;2022-09-20T15:36:05;18.60;99.90
2030;DHT22;1020;48.854;8.830;2022-09-20T15:38:33;18.60;99.90
2030;DHT22;1020;48.854;8.830;2022-09-20T15:41:01;18.60;99.90
2030;DHT22;1020;48.854;8.830;2022-09-20T15:43:29;18.20;99.90
2030;DHT22;1020;48.854;8.830;2022-09-20T15:45:57;18.00;99.90
2030;DHT22;1020;48.854;8.830;2022-09-20T15:48:26;17.60;99.90
2030;DHT22;1020;48.854;8.830;2022-09-20T15:51:01;17.40;99.90
2030;DHT22;1020;48.854;8.830;2022-09-20T15:53:28;17.20;99.90
2030;DHT22;1020;48.854;8.830;2022-09-20T15:55:59;16.90;99.90
2030;DHT22;1020;48.854;8.830;2022-09-20T15:58:27;16.80;99.90
2030;DHT22;1020;48.854;8.830;2022-09-20T16:01:01;16.80;99.90
2030;DHT22;1020;48.854;8.830;2022-09-20T16:03:29;16.60;99.90
2030;DHT22;1020;48.854;8.830;2022-09-20T16:05:57;16.50;99.90
2030;DHT22;1020;48.854;8.830;2022-09-20T16:08:25;16.40;99.90
2030;DHT22;1020;48.854;8.830;2022-09-20T16:10:55;16.30;99.90
2030;DHT22;1020;48.854;8.830;2022-09-20T16:13:24;16.30;99.90
2030;DHT22;1020;48.854;8.830;2022-09-20T16:15:54;16.20;99.90
2030;DHT22;1020;48.854;8.830;2022-09-20T16:18:21;16.10;99.90
2030;DHT22;1020;48.854;8.830;2022-09-20T16:21:06;16.00;99.90
2030;DHT22;1020;48.854;8.830;2022-09-20T16:23:33;15.80;99.90
2030;DHT22;1020;48.854;8.830;2022-09-20T16:26:01;15.70;99.90
2030;DHT22;1020;48.854;8.830;2022-09-20T16:28:29;15.50;99.90
2030;DHT22;1020;48.854;8.830;2022-09-20T16:30:57;15.50;99.90
2030;DHT22;1020;48.854;8.830;2022-09-20T16:33:24;15.60;99.90
2030;DHT22;1020;48.854;8.830;2022-09-20T16:35:50;15.60;99.90
2030;DHT22;1020;48.854;8.830;2022-09-20T16:38:17;15.60;99.90
2030;DHT22;1020;48.854;8.830;2022-09-20T16:40:47;15.50;99.90
2030;DHT22;1020;48.854;8.830;2022-09-20T16:43:14;15.20;99.90
2030;DHT22;1020;48.854;8.830;2022-09-20T16:45:48;15.10;99.90
2030;DHT22;1020;48.854;8.830;2022-09-20T16:48:15;15.00;99.90
2030;DHT22;1020;48.854;8.830;2022-09-20T16:50:42;14.90;99.90
2030;DHT22;1020;48.854;8.830;2022-09-20T16:53:11;14.70;99.90
2030;DHT22;1020;48.854;8.830;2022-09-20T16:55:42;14.60;99.90
2030;DHT22;1020;48.854;8.830;2022-09-20T16:58:09;14.60;99.90
2030;DHT22;1020;48.854;8.830;2022-09-20T17:00:36;14.60;99.90
2030;DHT22;1020;48.854;8.830;2022-09-20T17:03:04;14.60;99.90
2030;DHT22;1020;48.854;8.830;2022-09-20T17:05:31;14.50;99.90
2030;DHT22;1020;48.854;8.830;2022-09-20T17:07:58;14.40;99.90
2030;DHT22;1020;48.854;8.830;2022-09-20T17:10:26;14.40;99.90
2030;DHT22;1020;48.854;8.830;2022-09-20T17:12:54;14.30;1.00
2030;DHT22;1020;48.854;8.830;2022-09-20T17:15:22;14.40;1.00
2030;DHT22;1020;48.854;8.830;2022-09-20T17:17:49;14.40;1.00
2030;DHT22;1020;48.854;8.830;2022-09-20T17:20:17;14.30;1.00
2030;DHT22;1020;48.854;8.830;2022-09-20T17:22:44;14.30;1.00
2030;DHT22;1020;48.854;8.830;2022-09-20T17:25:10;14.30;1.00
2030;DHT22;1020;48.854;8.830;2022-09-20T17:27:37;14.30;1.00
2030;DHT22;1020;48.854;8.830;2022-09-20T17:30:05;14.20;1.00
2030;DHT22;1020;48.854;8.830;2022-09-20T17:32:34;14.20;1.00
2030;DHT22;1020;48.854;8.830;2022-09-20T17:35:01;14.20;1.00
2030;DHT22;1020;48.854;8.830;2022-09-20T17:37:29;14.10;1.00
2030;DHT22;1020;48.854;8.830;2022-09-20T17:39:56;13.70;1.00